createdAt,value
2022-11-05T00:02:32.182Z,5.2
2022-11-05T00:12:34.087Z,5
2022-11-05T00:22:36.619Z,4.9
2022-11-05T00:32:38.658Z,4.8
2022-11-05T01:12:47.786Z,4.6
2022-11-05T01:22:49.741Z,4.6
2022-11-05T01:32:51.844Z,4.4
2022-11-05T03:13:13.870Z,4.1
2022-11-05T03:23:16.078Z,3.9
2022-11-05T03:33:18.646Z,3.8
2022-11-05T03:53:22.353Z,3.6
2022-11-05T04:03:24.614Z,3.6
2022-11-05T04:23:28.493Z,4
2022-11-05T04:23:50.430Z,4
2022-11-05T04:33:37.680Z,3.8
2022-11-05T04:43:39.731Z,3.9
2022-11-05T05:03:43.937Z,3.6
2022-11-05T05:13:46.551Z,3.6
2022-11-05T05:23:49.047Z,3.5
2022-11-05T05:33:50.906Z,3.6
2022-11-05T05:43:53.516Z,3.7
2022-11-05T05:53:56.093Z,3.8
2022-11-05T06:03:57.738Z,3.8
2022-11-05T06:13:59.498Z,3.8
2022-11-05T06:24:01.338Z,3.7
2022-11-05T06:34:03.587Z,3.7
2022-11-05T06:44:05.242Z,3.6
2022-11-05T06:54:07.005Z,3.4
2022-11-05T07:04:08.774Z,3.4
2022-11-05T07:14:10.891Z,3.8
2022-11-05T07:24:12.970Z,3.9
2022-11-05T07:34:15.552Z,4.2
2022-11-05T07:44:17.713Z,4.9
2022-11-05T08:04:21.192Z,5.5
2022-11-05T08:14:23.142Z,6.1
2022-11-05T08:24:25.383Z,6.4
2022-11-05T08:34:27.315Z,6.5
2022-11-05T08:44:29.396Z,7.3
2022-11-05T08:54:31.231Z,7.6
2022-11-05T09:04:33.519Z,7.2
2022-11-05T09:14:35.908Z,7.4
2022-11-05T09:24:38.257Z,7.6
2022-11-05T09:34:40.278Z,7.9
2022-11-05T09:44:42.421Z,8.3
2022-11-05T09:54:44.661Z,8.5
2022-11-05T10:04:47.109Z,9.3
2022-11-05T10:14:49.475Z,9.3
2022-11-05T10:24:51.419Z,9.3
2022-11-05T10:34:53.141Z,9.8
2022-11-05T10:44:55.156Z,10
2022-11-05T10:54:56.824Z,10.4
2022-11-05T11:04:59.212Z,10.8
2022-11-05T11:15:01.494Z,10.9
2022-11-05T11:25:04.021Z,11
2022-11-05T11:35:06.570Z,11.3
2022-11-05T11:55:10.126Z,11.5
2022-11-05T12:05:12.320Z,12.2
2022-11-05T12:15:14.859Z,12.2
2022-11-05T12:25:16.781Z,11.9
2022-11-05T12:35:18.515Z,11.9
2022-11-05T12:45:20.262Z,11.6
2022-11-05T12:55:22.121Z,11.5
2022-11-05T13:05:24.245Z,11.1
2022-11-05T13:15:26.563Z,11
2022-11-05T13:25:28.374Z,11
2022-11-05T13:35:30.761Z,11.3
2022-11-05T13:45:33.045Z,11.3
2022-11-05T13:55:35.040Z,11
2022-11-05T14:05:37.236Z,11.1
2022-11-05T14:15:38.996Z,10.7
2022-11-05T14:25:41.398Z,10.3
2022-11-05T14:35:43.242Z,10
2022-11-05T14:45:45.690Z,10.1
2022-11-05T14:55:48.191Z,10.2
2022-11-05T15:05:50.125Z,10.1
2022-11-05T15:15:51.857Z,9.9
2022-11-05T15:25:53.799Z,9.7
2022-11-05T15:35:55.420Z,9.8
2022-11-05T15:45:57.364Z,9.6
2022-11-05T15:55:59.913Z,9.3
2022-11-05T16:06:02.506Z,9.2
2022-11-05T16:16:04.362Z,9.3
2022-11-05T16:26:06.937Z,9
2022-11-05T16:36:09.235Z,8.9
2022-11-05T16:46:11.012Z,8.7
2022-11-05T16:56:13.291Z,8.7
2022-11-05T17:06:15.416Z,8.6
2022-11-05T17:16:17.458Z,8.8
2022-11-05T17:26:20.094Z,8.8
2022-11-05T17:46:24.156Z,9
2022-11-05T17:56:33.711Z,9.1
2022-11-05T18:06:28.729Z,9.4
2022-11-05T18:16:31.158Z,9.4
2022-11-05T18:26:33.312Z,9.4
2022-11-05T18:36:35.370Z,9.5
2022-11-05T18:46:56.883Z,9.4
2022-11-05T18:56:39.825Z,9.3
2022-11-05T19:06:41.720Z,9.3
2022-11-05T19:16:43.422Z,9.4
2022-11-05T19:26:45.975Z,9.4
2022-11-05T19:36:48.501Z,9.5
2022-11-05T19:46:50.938Z,9.5
2022-11-05T19:56:52.754Z,9.4
2022-11-05T20:06:55.105Z,9.3
2022-11-05T20:16:57.422Z,9.3
2022-11-05T20:26:59.642Z,9.3
2022-11-05T20:37:02.085Z,9.3
2022-11-05T20:47:04.107Z,9
2022-11-05T20:57:06.720Z,8.9
2022-11-05T21:07:08.741Z,9
2022-11-05T21:17:10.761Z,8.8
2022-11-05T21:27:13.026Z,8.9
2022-11-05T21:37:14.788Z,8.9
2022-11-05T21:47:17.382Z,8.9
2022-11-05T21:57:19.302Z,9
2022-11-05T22:07:21.509Z,8.8
2022-11-05T22:17:23.680Z,8.9
2022-11-05T22:27:25.640Z,9.1
2022-11-05T22:37:27.484Z,8.9
2022-11-05T22:47:29.975Z,8.8
2022-11-05T22:57:32.562Z,8.6
2022-11-05T23:07:34.314Z,8.5
2022-11-05T23:17:36.237Z,8.1
2022-11-05T23:27:38.357Z,8.1
2022-11-05T23:37:40.847Z,8.1
2022-11-05T23:47:43.144Z,8
2022-11-05T23:57:45.039Z,8.2
